Time;durP1;ratioP1;P1;durP2;ratioP2;P2;SDS_P1;SDS_P2;PMS_P1;PMS_P2;Temp;Humidity;BMP_temperature;BMP_pressure;BME280_temperature;BME280_humidity;BME280_pressure;Samples;Min_cycle;Max_cycle;Signal;HPM_P1;HPM_P2
2023/05/10 00:00:52;;;;;;;14.52;12.60;;;14.90;99.90;;;;;;4975600;28;20219;-83
2023/05/10 00:03:17;;;;;;;12.68;11.38;;;14.90;99.90;;;;;;4973611;28;20608;-83
2023/05/10 00:05:43;;;;;;;14.75;11.90;;;14.80;99.90;;;;;;4971865;28;20197;-83
2023/05/10 00:08:09;;;;;;;12.38;11.02;;;14.80;99.90;;;;;;4989496;28;20193;-83
2023/05/10 00:10:36;;;;;;;12.57;11.25;;;14.70;99.90;;;;;;4985915;28;20185;-83
2023/05/10 00:13:01;;;;;;;13.55;12.13;;;14.70;99.90;;;;;;4992132;28;20240;-84
2023/05/10 00:15:27;;;;;;;13.45;12.05;;;14.60;99.90;;;;;;4974713;28;20240;-83
2023/05/10 00:17:53;;;;;;;14.63;12.98;;;14.60;99.90;;;;;;4974960;28;20213;-84
2023/05/10 00:20:19;;;;;;;15.82;12.63;;;14.60;99.90;;;;;;4990964;28;20208;-84
2023/05/10 00:22:44;;;;;;;16.63;12.52;;;14.50;99.90;;;;;;4985861;28;20251;-84
2023/05/10 00:25:10;;;;;;;15.80;13.00;;;14.50;99.90;;;;;;4983432;28;20200;-83
2023/05/10 00:27:36;;;;;;;14.45;11.95;;;14.50;99.90;;;;;;4989751;28;20185;-83
2023/05/10 00:30:02;;;;;;;13.82;12.32;;;14.50;99.90;;;;;;4974956;28;20240;-85
2023/05/10 00:32:28;;;;;;;12.98;11.55;;;14.50;99.90;;;;;;4974829;28;20316;-84
2023/05/10 00:34:55;;;;;;;13.93;11.57;;;14.40;99.90;;;;;;4974668;28;20353;-85
2023/05/10 00:37:21;;;;;;;14.73;11.32;;;14.40;99.90;;;;;;4959848;28;20276;-84
2023/05/10 00:39:46;;;;;;;12.73;10.20;;;14.40;99.90;;;;;;4976122;28;20189;-85
2023/05/10 00:42:12;;;;;;;11.98;10.27;;;14.40;99.90;;;;;;4968486;28;20198;-84
2023/05/10 00:44:38;;;;;;;12.02;10.52;;;14.40;99.90;;;;;;4994076;28;20192;-84
2023/05/10 00:47:05;;;;;;;12.82;10.82;;;14.40;99.90;;;;;;4974603;28;20193;-86
2023/05/10 00:49:31;;;;;;;11.30;9.88;;;14.30;99.90;;;;;;4992762;28;20190;-83
2023/05/10 00:51:57;;;;;;;11.05;9.25;;;14.30;99.90;;;;;;4975713;28;20633;-84
2023/05/10 00:54:22;;;;;;;11.05;9.43;;;14.30;99.90;;;;;;4984087;28;20237;-83
2023/05/10 00:56:50;;;;;;;12.07;10.10;;;14.30;99.90;;;;;;4972877;28;20189;-84
2023/05/10 00:59:17;;;;;;;11.18;9.85;;;14.30;99.90;;;;;;4984603;28;20189;-84
2023/05/10 01:01:44;;;;;;;10.65;9.07;;;14.30;99.90;;;;;;4972369;28;20255;-84
2023/05/10 01:04:12;;;;;;;9.20;8.15;;;14.30;99.90;;;;;;5003998;28;20269;-84
2023/05/10 01:06:39;;;;;;;11.27;8.32;;;14.20;99.90;;;;;;4965506;28;20196;-82
2023/05/10 01:09:06;;;;;;;9.07;7.90;;;14.20;99.90;;;;;;4990498;28;20189;-84
2023/05/10 01:11:34;;;;;;;9.73;8.48;;;14.20;99.90;;;;;;4971487;28;20181;-82
2023/05/10 01:14:02;;;;;;;10.23;8.48;;;14.20;99.90;;;;;;4964239;28;20209;-84
2023/05/10 01:16:32;;;;;;;9.63;8.63;;;14.20;99.90;;;;;;4991927;28;20520;-85
2023/05/10 01:18:58;;;;;;;9.85;8.85;;;14.20;99.90;;;;;;4984790;28;20192;-84
2023/05/10 01:21:45;;;;;;;10.65;9.40;;;14.10;99.90;;;;;;5002958;28;20182;-84
2023/05/10 01:24:51;;;;;;;11.85;9.43;;;14.10;99.90;;;;;;5000684;28;20256;-85
2023/05/10 01:27:40;;;;;;;10.65;9.55;;;14.10;99.90;;;;;;4980503;28;20531;-85
2023/05/10 01:30:15;;;;;;;12.68;10.38;;;14.10;99.90;;;;;;4975586;28;20303;-86
2023/05/10 01:32:50;;;;;;;13.93;10.98;;;14.10;99.90;;;;;;4984348;28;20674;-84
2023/05/10 01:35:32;;;;;;;12.63;10.65;;;14.10;99.90;;;;;;4958309;28;20193;-85
2023/05/10 01:38:07;;;;;;;12.60;10.65;;;14.00;99.90;;;;;;4958737;28;20276;-84
2023/05/10 01:40:37;;;;;;;11.50;10.25;;;14.00;99.90;;;;;;4984619;28;20185;-84
2023/05/10 01:43:10;;;;;;;13.18;10.68;;;14.00;99.90;;;;;;4958326;28;20225;-86
2023/05/10 01:46:11;;;;;;;12.40;10.65;;;14.00;99.90;;;;;;4990724;28;20260;-84
2023/05/10 01:48:47;;;;;;;12.27;10.25;;;14.00;99.90;;;;;;4960167;28;20193;-84
2023/05/10 01:51:19;;;;;;;13.75;10.48;;;14.00;99.90;;;;;;4958610;28;20204;-84
2023/05/10 01:53:47;;;;;;;12.07;10.77;;;13.90;99.90;;;;;;4986831;28;20216;-82
2023/05/10 01:56:19;;;;;;;12.63;10.77;;;13.90;99.90;;;;;;4955494;28;20207;-83
2023/05/10 01:58:48;;;;;;;13.52;10.65;;;13.90;99.90;;;;;;4967469;28;20269;-82
2023/05/10 02:01:15;;;;;;;12.98;11.05;;;13.90;99.90;;;;;;4983937;28;20196;-82
2023/05/10 02:03:42;;;;;;;14.32;11.15;;;13.90;99.90;;;;;;4977399;28;20217;-82
2023/05/10 02:06:10;;;;;;;13.57;10.93;;;13.90;99.90;;;;;;4973460;28;20185;-83
2023/05/10 02:08:37;;;;;;;12.27;10.95;;;13.90;99.90;;;;;;4973325;28;20989;-82
2023/05/10 02:11:05;;;;;;;17.33;10.32;;;13.90;99.90;;;;;;4958713;28;20189;-84
2023/05/10 02:13:34;;;;;;;11.95;10.65;;;13.90;99.90;;;;;;4974010;28;20298;-83
2023/05/10 02:16:01;;;;;;;12.27;10.55;;;13.90;99.90;;;;;;4957900;28;20178;-83
2023/05/10 02:18:27;;;;;;;12.48;11.13;;;13.80;99.90;;;;;;4975078;28;20189;-83
2023/05/10 02:20:55;;;;;;;11.95;10.65;;;13.80;99.90;;;;;;4972755;28;20185;-84
2023/05/10 02:23:22;;;;;;;13.30;10.95;;;13.80;99.90;;;;;;4957768;28;20196;-84
2023/05/10 02:25:49;;;;;;;14.25;11.65;;;13.80;99.90;;;;;;4972444;28;20716;-84
2023/05/10 02:28:16;;;;;;;14.02;10.98;;;13.80;99.90;;;;;;4986766;28;20599;-84
2023/05/10 02:30:43;;;;;;;12.90;10.88;;;13.80;99.90;;;;;;4974138;28;20196;-83
2023/05/10 02:33:11;;;;;;;12.35;10.48;;;13.80;99.90;;;;;;4957804;28;20694;-85
2023/05/10 02:35:38;;;;;;;12.07;10.80;;;13.80;99.90;;;;;;4991556;28;20190;-83
2023/05/10 02:38:05;;;;;;;12.23;10.85;;;13.80;99.90;;;;;;4991117;28;20177;-85
2023/05/10 02:40:33;;;;;;;13.38;11.15;;;13.80;99.90;;;;;;4973070;28;20256;-84
2023/05/10 02:43:01;;;;;;;13.18;11.25;;;13.80;99.90;;;;;;4973788;28;20196;-83
2023/05/10 02:45:30;;;;;;;16.48;12.07;;;13.80;99.90;;;;;;4972388;28;21592;-84
2023/05/10 02:47:57;;;;;;;15.88;12.32;;;13.80;99.90;;;;;;4972439;28;20627;-84
2023/05/10 02:50:27;;;;;;;16.55;11.63;;;13.80;99.90;;;;;;4987160;28;20271;-83
2023/05/10 02:52:59;;;;;;;15.05;12.07;;;13.70;99.90;;;;;;4995005;28;20243;-83
2023/05/10 02:55:28;;;;;;;15.80;12.70;;;13.70;99.90;;;;;;4961828;28;20224;-83
2023/05/10 02:58:01;;;;;;;15.50;13.13;;;13.70;99.90;;;;;;4961671;28;20236;-83
2023/05/10 03:00:27;;;;;;;16.23;13.10;;;13.70;99.90;;;;;;4977574;28;20185;-83
2023/05/10 03:02:54;;;;;;;19.17;13.48;;;13.70;99.90;;;;;;4961996;28;20244;-83
2023/05/10 03:05:20;;;;;;;18.20;13.52;;;13.70;99.90;;;;;;4975614;28;20181;-83
2023/05/10 03:07:47;;;;;;;17.70;13.57;;;13.70;99.90;;;;;;4942558;28;20190;-83
2023/05/10 03:10:13;;;;;;;18.85;14.32;;;13.70;99.90;;;;;;4961064;28;20662;-83
2023/05/10 03:13:14;;;;;;;20.95;15.70;;;13.70;99.90;;;;;;4976142;28;20239;-82
2023/05/10 03:16:03;;;;;;;22.30;16.27;;;13.70;99.90;;;;;;4968723;28;20196;-81
2023/05/10 03:18:54;;;;;;;20.65;15.93;;;13.70;99.90;;;;;;4977030;28;20186;-83
2023/05/10 03:21:25;;;;;;;21.02;16.42;;;13.60;99.90;;;;;;4978132;28;20655;-82
2023/05/10 03:23:59;;;;;;;22.55;15.98;;;13.60;99.90;;;;;;4962826;28;20228;-82
2023/05/10 03:26:26;;;;;;;19.08;15.43;;;13.70;99.90;;;;;;4960997;28;20185;-83
2023/05/10 03:29:00;;;;;;;20.13;15.73;;;13.70;99.90;;;;;;4977467;28;20180;-83
2023/05/10 03:31:26;;;;;;;21.00;15.55;;;13.70;99.90;;;;;;4958841;28;20185;-83
2023/05/10 03:33:53;;;;;;;23.52;16.27;;;13.70;99.90;;;;;;4993544;28;20239;-84
2023/05/10 03:36:23;;;;;;;19.35;15.75;;;13.70;99.90;;;;;;4960597;28;20470;-82
2023/05/10 03:38:50;;;;;;;21.13;16.05;;;13.70;99.90;;;;;;4957975;28;20186;-83
2023/05/10 03:41:16;;;;;;;22.35;17.15;;;13.70;99.90;;;;;;4971606;28;20603;-84
2023/05/10 03:43:41;;;;;;;23.65;16.50;;;13.70;99.90;;;;;;4961215;28;20667;-83
2023/05/10 03:46:07;;;;;;;21.52;16.27;;;13.70;99.90;;;;;;4960352;28;20193;-83
2023/05/10 03:48:34;;;;;;;22.42;16.88;;;13.70;99.90;;;;;;4992185;28;20216;-84
2023/05/10 03:51:00;;;;;;;23.05;17.05;;;13.70;99.90;;;;;;4987715;28;20182;-83
2023/05/10 03:53:26;;;;;;;25.13;17.90;;;13.70;99.90;;;;;;4990223;28;20240;-83
2023/05/10 03:55:52;;;;;;;25.83;18.38;;;13.70;99.90;;;;;;4961587;28;20201;-89
2023/05/10 03:58:18;;;;;;;25.42;18.75;;;13.70;99.90;;;;;;4961062;28;20189;-83
2023/05/10 04:00:45;;;;;;;24.90;18.48;;;13.70;99.90;;;;;;4973236;28;20196;-83
2023/05/10 04:03:12;;;;;;;28.88;20.17;;;13.70;99.90;;;;;;4961074;28;20194;-82
2023/05/10 04:05:38;;;;;;;30.27;19.83;;;13.60;99.90;;;;;;4992867;28;20189;-84
2023/05/10 04:08:05;;;;;;;28.35;19.63;;;13.60;99.90;;;;;;4986707;28;20196;-85
2023/05/10 04:10:31;;;;;;;30.17;19.70;;;13.60;99.90;;;;;;4974583;28;20182;-83
2023/05/10 04:12:56;;;;;;;31.58;19.45;;;13.60;99.90;;;;;;4960913;28;20221;-83
2023/05/10 04:15:22;;;;;;;25.20;17.85;;;13.60;99.90;;;;;;4975475;28;20315;-82
2023/05/10 04:17:48;;;;;;;20.67;13.52;;;13.60;99.90;;;;;;4991944;28;20605;-84
2023/05/10 04:20:14;;;;;;;15.63;12.43;;;13.60;99.90;;;;;;4975125;28;20200;-83
2023/05/10 04:22:40;;;;;;;18.02;11.85;;;13.60;99.90;;;;;;4977084;28;20197;-83
2023/05/10 04:25:06;;;;;;;14.40;11.40;;;13.60;99.90;;;;;;4976196;28;20193;-84
2023/05/10 04:27:32;;;;;;;15.95;10.05;;;13.60;99.90;;;;;;4975851;28;20193;-82
2023/05/10 04:29:58;;;;;;;11.88;10.30;;;13.60;99.90;;;;;;4992677;28;20185;-83
2023/05/10 04:32:24;;;;;;;14.95;9.38;;;13.50;99.90;;;;;;4958853;28;20189;-82
2023/05/10 04:34:53;;;;;;;11.93;8.88;;;13.50;99.90;;;;;;4960255;28;20257;-82
2023/05/10 04:37:21;;;;;;;12.73;9.27;;;13.50;99.90;;;;;;4951274;28;20214;-83
2023/05/10 04:39:46;;;;;;;10.35;8.27;;;13.50;99.90;;;;;;4937108;29;20198;-82
2023/05/10 04:42:14;;;;;;;10.30;8.63;;;13.50;99.90;;;;;;4935586;28;20199;-84
2023/05/10 04:44:40;;;;;;;11.70;8.98;;;13.50;99.90;;;;;;4954012;28;20191;-82
2023/05/10 04:47:06;;;;;;;12.07;9.10;;;13.40;99.90;;;;;;4927668;28;20273;-83
2023/05/10 04:49:32;;;;;;;10.20;8.90;;;13.50;99.90;;;;;;4950427;28;20623;-82
2023/05/10 04:51:58;;;;;;;12.77;7.93;;;13.50;99.90;;;;;;4950058;28;20270;-82
2023/05/10 04:54:24;;;;;;;10.85;8.40;;;13.40;99.90;;;;;;4973706;28;20692;-82
2023/05/10 04:56:50;;;;;;;12.05;8.07;;;13.40;99.90;;;;;;4935463;29;20210;-83
2023/05/10 04:59:16;;;;;;;10.90;8.05;;;13.40;99.90;;;;;;4977445;28;20191;-83
2023/05/10 05:01:41;;;;;;;11.63;8.63;;;13.40;99.90;;;;;;4952399;28;20278;-81
2023/05/10 05:04:07;;;;;;;9.35;8.35;;;13.40;99.90;;;;;;4920130;28;20199;-82
2023/05/10 05:06:33;;;;;;;9.40;7.63;;;13.40;99.90;;;;;;4948877;28;20183;-83
2023/05/10 05:08:59;;;;;;;9.65;8.02;;;13.40;99.90;;;;;;4927839;29;20242;-87
2023/05/10 05:11:25;;;;;;;8.73;7.70;;;13.40;99.90;;;;;;4953128;28;20680;-89
2023/05/10 05:13:51;;;;;;;9.52;7.82;;;13.40;99.90;;;;;;4960683;28;20223;-87
2023/05/10 05:16:17;;;;;;;9.25;7.40;;;13.40;99.90;;;;;;4963040;28;20194;-83
2023/05/10 05:18:43;;;;;;;8.27;7.43;;;13.40;99.90;;;;;;4937341;29;20226;-84
2023/05/10 05:21:19;;;;;;;9.00;7.40;;;13.40;99.90;;;;;;4920845;28;20214;-84
2023/05/10 05:23:45;;;;;;;8.80;7.30;;;13.40;99.90;;;;;;4950363;28;20217;-85
2023/05/10 05:26:11;;;;;;;8.15;7.35;;;13.40;99.90;;;;;;4951077;28;20190;-85
2023/05/10 05:28:37;;;;;;;8.30;7.18;;;13.40;99.90;;;;;;4949847;28;20190;-85
2023/05/10 05:31:10;;;;;;;8.02;7.13;;;13.40;99.90;;;;;;4961941;28;20207;-87
2023/05/10 05:33:35;;;;;;;8.10;6.90;;;13.40;99.90;;;;;;4980201;28;20241;-83
2023/05/10 05:36:03;;;;;;;9.65;7.75;;;13.40;99.90;;;;;;4943626;28;20198;-84
2023/05/10 05:38:28;;;;;;;8.55;7.57;;;13.40;99.90;;;;;;4977683;28;20185;-84
2023/05/10 05:40:54;;;;;;;8.75;7.45;;;13.40;99.90;;;;;;4978732;28;20710;-84
2023/05/10 05:43:20;;;;;;;8.40;7.40;;;13.40;99.90;;;;;;4956065;28;20280;-84
2023/05/10 05:45:46;;;;;;;9.73;7.47;;;13.40;99.90;;;;;;4972331;28;20186;-81
2023/05/10 05:48:12;;;;;;;9.40;7.47;;;13.40;99.90;;;;;;4973609;28;20642;-86
2023/05/10 05:50:37;;;;;;;8.82;7.72;;;13.40;99.90;;;;;;4959857;28;20196;-86
2023/05/10 05:53:03;;;;;;;8.57;7.15;;;13.40;99.90;;;;;;4990903;28;20626;-85
2023/05/10 05:55:31;;;;;;;10.25;7.28;;;13.50;99.90;;;;;;4966745;28;21071;-83
2023/05/10 05:57:57;;;;;;;8.55;7.30;;;13.50;99.90;;;;;;4957857;28;20308;-83
2023/05/10 06:00:23;;;;;;;8.93;6.93;;;13.50;99.90;;;;;;4974444;28;20189;-83
2023/05/10 06:02:49;;;;;;;8.27;6.70;;;13.50;99.90;;;;;;4968832;28;20193;-84
2023/05/10 06:05:15;;;;;;;6.70;5.97;;;13.50;99.90;;;;;;4972832;28;20191;-84
2023/05/10 06:07:44;;;;;;;6.20;5.28;;;13.50;99.90;;;;;;4967915;28;20193;-85
2023/05/10 06:10:10;;;;;;;5.93;4.80;;;13.50;99.90;;;;;;4958154;28;20616;-85
2023/05/10 06:12:36;;;;;;;6.72;5.32;;;13.50;99.90;;;;;;4974293;28;20690;-85
2023/05/10 06:15:03;;;;;;;5.30;4.50;;;13.50;99.90;;;;;;4955007;28;20247;-85
2023/05/10 06:17:28;;;;;;;4.55;4.15;;;13.50;99.90;;;;;;4972581;28;20210;-85
2023/05/10 06:19:54;;;;;;;4.47;3.53;;;13.50;99.90;;;;;;4952296;28;20731;-87
2023/05/10 06:22:22;;;;;;;4.20;3.03;;;13.60;99.90;;;;;;4975195;28;20193;-90
2023/05/10 06:24:48;;;;;;;2.50;2.30;;;13.60;99.90;;;;;;4948431;28;20185;-85
2023/05/10 06:27:14;;;;;;;2.60;2.20;;;13.60;99.90;;;;;;5002889;28;20194;-89
2023/05/10 06:29:40;;;;;;;2.50;2.30;;;13.50;99.90;;;;;;4967480;28;20185;-86
2023/05/10 06:32:06;;;;;;;3.63;2.25;;;13.60;99.90;;;;;;4980699;28;20719;-85
2023/05/10 06:34:32;;;;;;;3.10;2.80;;;13.60;99.90;;;;;;4998300;28;20264;-84
2023/05/10 06:36:58;;;;;;;4.45;4.05;;;13.60;99.90;;;;;;4997899;28;20185;-84
2023/05/10 06:39:23;;;;;;;5.53;4.90;;;13.60;99.90;;;;;;4997842;28;20277;-87
2023/05/10 06:41:49;;;;;;;8.45;7.18;;;13.60;99.90;;;;;;4964812;28;20185;-83
2023/05/10 06:44:15;;;;;;;10.68;8.52;;;13.50;99.90;;;;;;4996930;28;20558;-86
2023/05/10 06:46:43;;;;;;;11.98;10.05;;;13.50;99.90;;;;;;4982906;28;20189;-84
2023/05/10 06:49:09;;;;;;;12.75;10.52;;;13.50;99.90;;;;;;4967885;28;20188;-81
2023/05/10 06:51:35;;;;;;;14.15;10.43;;;13.50;99.90;;;;;;4999073;28;20170;-86
2023/05/10 06:54:01;;;;;;;13.68;10.48;;;13.50;99.90;;;;;;4996471;28;20683;-84
2023/05/10 06:56:27;;;;;;;14.20;10.50;;;13.50;99.90;;;;;;4980567;28;20323;-89
2023/05/10 06:58:53;;;;;;;12.93;10.52;;;13.50;99.90;;;;;;4979081;28;20644;-85
2023/05/10 07:01:19;;;;;;;13.20;10.98;;;13.50;99.90;;;;;;4996674;28;20208;-85
2023/05/10 07:03:45;;;;;;;12.13;10.73;;;13.50;99.90;;;;;;4978979;28;20200;-85
2023/05/10 07:06:11;;;;;;;17.00;11.45;;;13.50;99.90;;;;;;4962255;28;20244;-84
2023/05/10 07:08:36;;;;;;;12.95;10.60;;;13.50;99.90;;;;;;4946857;28;20284;-83
2023/05/10 07:11:03;;;;;;;14.20;11.38;;;13.50;99.90;;;;;;4978564;28;20189;-84
2023/05/10 07:13:31;;;;;;;11.95;9.77;;;13.50;99.90;;;;;;4978586;28;20209;-83
2023/05/10 07:15:57;;;;;;;11.63;9.00;;;13.40;99.90;;;;;;4962823;28;20193;-88
2023/05/10 07:18:23;;;;;;;10.85;8.55;;;13.50;99.90;;;;;;4962952;28;20178;-83
2023/05/10 07:20:49;;;;;;;10.50;8.75;;;13.50;99.90;;;;;;4963217;28;20185;-84
2023/05/10 07:23:14;;;;;;;10.48;8.52;;;13.50;99.90;;;;;;4962447;28;20189;-84
2023/05/10 07:25:40;;;;;;;8.48;7.40;;;13.40;99.90;;;;;;4978978;28;20185;-84
2023/05/10 07:28:06;;;;;;;8.77;7.60;;;13.40;99.90;;;;;;4960375;28;20204;-85
2023/05/10 07:30:32;;;;;;;9.35;7.40;;;13.50;99.90;;;;;;4969970;28;20181;-84
2023/05/10 07:32:59;;;;;;;7.35;6.50;;;13.50;99.90;;;;;;4976412;28;20252;-83
2023/05/10 07:35:24;;;;;;;7.22;6.53;;;13.50;99.90;;;;;;4994490;28;20264;-82
2023/05/10 07:37:50;;;;;;;7.90;6.63;;;13.50;99.90;;;;;;4959260;28;20194;-83
2023/05/10 07:40:16;;;;;;;11.80;7.50;;;13.60;99.90;;;;;;4961479;28;20193;-85
2023/05/10 07:42:42;;;;;;;7.70;6.70;;;13.60;99.90;;;;;;4946669;28;20181;-84
2023/05/10 07:45:08;;;;;;;7.05;5.95;;;13.60;99.90;;;;;;4960875;28;20220;-84
2023/05/10 07:47:34;;;;;;;7.00;5.32;;;13.60;99.90;;;;;;4961563;28;20281;-84
2023/05/10 07:49:59;;;;;;;6.05;5.45;;;13.70;99.90;;;;;;4961376;28;20280;-82
2023/05/10 07:52:25;;;;;;;5.30;4.80;;;13.70;99.90;;;;;;4987438;28;20194;-84
2023/05/10 07:54:51;;;;;;;6.43;5.07;;;13.70;99.90;;;;;;4994541;28;20209;-83
2023/05/10 07:57:18;;;;;;;4.88;4.40;;;13.70;99.90;;;;;;4994074;28;20193;-85
2023/05/10 07:59:44;;;;;;;4.28;3.88;;;13.70;99.90;;;;;;4960259;28;20237;-83
2023/05/10 08:02:10;;;;;;;4.05;3.65;;;13.70;99.90;;;;;;4977085;28;20185;-82
2023/05/10 08:04:36;;;;;;;4.45;4.03;;;13.70;99.90;;;;;;4964242;28;20287;-82
2023/05/10 08:07:02;;;;;;;5.15;4.63;;;13.70;99.90;;;;;;4978425;28;20185;-82
2023/05/10 08:09:27;;;;;;;7.55;4.82;;;13.70;99.90;;;;;;4995039;28;20180;-82
2023/05/10 08:11:53;;;;;;;7.85;5.10;;;13.70;99.90;;;;;;4961589;28;20268;-82
2023/05/10 08:14:19;;;;;;;6.25;5.22;;;13.70;99.90;;;;;;4995352;28;20651;-83
2023/05/10 08:16:45;;;;;;;7.10;5.80;;;13.70;99.90;;;;;;4961835;28;20216;-82
2023/05/10 08:19:11;;;;;;;6.90;6.20;;;13.80;99.90;;;;;;5001682;28;20191;-84
2023/05/10 08:21:37;;;;;;;9.23;6.32;;;13.70;99.90;;;;;;4993967;28;20651;-83
2023/05/10 08:24:03;;;;;;;7.57;6.75;;;13.70;99.90;;;;;;4977395;28;20193;-83
2023/05/10 08:26:28;;;;;;;8.65;6.80;;;13.70;99.90;;;;;;4977488;28;20669;-82
2023/05/10 08:28:54;;;;;;;7.65;6.35;;;13.70;99.90;;;;;;4994473;28;20240;-82
2023/05/10 08:31:20;;;;;;;7.55;6.40;;;13.80;99.90;;;;;;4977574;28;20834;-85
2023/05/10 08:33:46;;;;;;;10.50;7.15;;;13.80;99.90;;;;;;4965405;28;20233;-83
2023/05/10 08:36:14;;;;;;;8.25;6.72;;;13.80;99.90;;;;;;4976788;28;20249;-85
2023/05/10 08:38:39;;;;;;;8.60;7.70;;;13.80;99.90;;;;;;4992439;28;20261;-82
2023/05/10 08:41:06;;;;;;;10.27;8.00;;;13.80;99.90;;;;;;4971809;28;20245;-82
2023/05/10 08:43:32;;;;;;;8.90;7.68;;;13.80;99.90;;;;;;4941697;28;20190;-83
2023/05/10 08:46:02;;;;;;;9.75;8.43;;;13.80;99.90;;;;;;4992592;28;20244;-85
2023/05/10 08:48:30;;;;;;;8.77;7.88;;;13.70;99.90;;;;;;4977578;28;20184;-84
2023/05/10 08:50:59;;;;;;;9.57;7.45;;;13.70;99.90;;;;;;4945175;28;20189;-84
2023/05/10 08:53:28;;;;;;;9.77;7.45;;;13.80;99.90;;;;;;4960808;28;20271;-84
2023/05/10 08:55:55;;;;;;;11.95;7.57;;;13.80;99.90;;;;;;4977283;28;20181;-83
2023/05/10 08:58:21;;;;;;;9.95;7.53;;;13.80;99.90;;;;;;4977398;28;20192;-84
2023/05/10 09:00:48;;;;;;;7.72;6.38;;;13.80;99.90;;;;;;4961799;28;20185;-83
2023/05/10 09:03:14;;;;;;;7.65;6.18;;;13.80;99.90;;;;;;4976451;28;20216;-82
2023/05/10 09:05:41;;;;;;;10.43;5.97;;;13.80;99.90;;;;;;4976310;28;20182;-89
2023/05/10 09:08:08;;;;;;;7.07;5.90;;;13.80;99.90;;;;;;4944671;28;20204;-83
2023/05/10 09:10:34;;;;;;;7.47;5.75;;;13.90;99.90;;;;;;4992599;28;20185;-86
2023/05/10 09:13:00;;;;;;;8.05;6.00;;;13.90;99.90;;;;;;4976266;28;20205;-85
2023/05/10 09:15:26;;;;;;;7.28;5.60;;;13.90;99.90;;;;;;4959456;28;20289;-83
2023/05/10 09:17:52;;;;;;;6.80;5.78;;;13.90;99.90;;;;;;4993183;28;20213;-85
2023/05/10 09:20:19;;;;;;;9.50;7.20;;;14.00;99.90;;;;;;4992943;28;20209;-90
2023/05/10 09:22:45;;;;;;;10.02;7.13;;;14.00;99.90;;;;;;4988166;28;20197;-89
2023/05/10 09:25:13;;;;;;;10.30;7.38;;;14.00;99.90;;;;;;4959003;28;20538;-78
2023/05/10 09:27:43;;;;;;;10.95;7.10;;;14.10;99.90;;;;;;4991520;28;20213;-82
2023/05/10 09:30:09;;;;;;;10.07;8.15;;;14.10;99.90;;;;;;4994095;28;20185;-88
2023/05/10 09:32:44;;;;;;;8.93;6.90;;;14.20;99.90;;;;;;4959964;28;20207;-82
2023/05/10 09:35:15;;;;;;;11.55;7.97;;;14.20;99.90;;;;;;4993529;28;20220;-82
2023/05/10 09:37:43;;;;;;;12.10;7.47;;;14.20;99.90;;;;;;4976378;28;20173;-82
2023/05/10 09:40:15;;;;;;;8.65;6.57;;;14.30;99.90;;;;;;4975750;28;20181;-82
2023/05/10 09:42:50;;;;;;;9.10;7.40;;;14.30;99.90;;;;;;4993648;28;20276;-83
2023/05/10 09:45:19;;;;;;;8.52;6.95;;;14.40;99.90;;;;;;4991625;28;20189;-83
2023/05/10 09:47:45;;;;;;;9.25;6.45;;;14.40;99.90;;;;;;4960131;28;20192;-82
2023/05/10 09:50:12;;;;;;;7.13;6.35;;;14.40;99.90;;;;;;4993766;28;20284;-82
2023/05/10 09:52:57;;;;;;;7.93;6.50;;;14.50;99.90;;;;;;4993025;28;20196;-80
2023/05/10 09:55:24;;;;;;;9.43;6.85;;;14.50;99.90;;;;;;4993681;28;20268;-82
2023/05/10 09:58:00;;;;;;;8.68;6.95;;;14.60;99.90;;;;;;4993638;28;20287;-83
2023/05/10 10:00:28;;;;;;;8.82;6.95;;;14.60;99.90;;;;;;4996967;28;20296;-86
2023/05/10 10:02:58;;;;;;;11.68;6.78;;;14.60;99.90;;;;;;4993157;28;20239;-83
2023/05/10 10:05:31;;;;;;;9.30;5.90;;;14.60;99.90;;;;;;4957204;28;20251;-81
2023/05/10 10:07:58;;;;;;;7.57;5.57;;;14.70;99.90;;;;;;4955273;28;20662;-81
2023/05/10 10:10:27;;;;;;;7.38;6.00;;;14.70;99.90;;;;;;4975813;28;20193;-82
2023/05/10 10:12:54;;;;;;;8.57;5.20;;;14.70;99.90;;;;;;4975738;28;20304;-81
2023/05/10 10:15:24;;;;;;;7.22;5.65;;;14.70;99.90;;;;;;4959901;28;20189;-81
2023/05/10 10:17:51;;;;;;;7.85;5.57;;;14.80;99.90;;;;;;4993239;28;20224;-81
2023/05/10 10:20:18;;;;;;;8.90;5.72;;;14.90;99.90;;;;;;4993127;28;20866;-81
2023/05/10 10:22:45;;;;;;;8.30;6.00;;;14.90;99.90;;;;;;4975746;28;20774;-82
2023/05/10 10:25:13;;;;;;;7.70;6.35;;;15.00;99.90;;;;;;4960309;28;20301;-81
2023/05/10 10:27:45;;;;;;;10.30;5.88;;;15.10;99.90;;;;;;4991129;28;20511;-81
2023/05/10 10:30:34;;;;;;;6.53;5.25;;;15.10;99.90;;;;;;4980606;28;20185;-81
2023/05/10 10:33:03;;;;;;;5.25;3.90;;;15.20;99.90;;;;;;4992545;28;20243;-81
2023/05/10 10:35:33;;;;;;;5.22;4.20;;;15.20;99.90;;;;;;4963300;28;20277;-80
2023/05/10 10:37:59;;;;;;;6.28;4.25;;;15.30;99.90;;;;;;4978446;28;20193;-80
2023/05/10 10:40:27;;;;;;;5.35;4.22;;;15.30;99.90;;;;;;4997903;28;20177;-80
2023/05/10 10:42:53;;;;;;;5.70;4.70;;;15.30;99.90;;;;;;4996540;28;20240;-80
2023/05/10 10:45:20;;;;;;;6.13;4.38;;;15.30;99.90;;;;;;4994947;28;20268;-84
2023/05/10 10:47:47;;;;;;;5.47;4.40;;;15.40;99.90;;;;;;4973956;28;20617;-80
2023/05/10 10:50:12;;;;;;;6.18;4.30;;;15.50;99.90;;;;;;4990024;28;20252;-82
2023/05/10 10:52:40;;;;;;;5.15;4.65;;;15.50;99.90;;;;;;4955884;28;20267;-83
2023/05/10 10:55:14;;;;;;;5.97;4.82;;;15.50;99.90;;;;;;4986948;28;20178;-84
2023/05/10 10:57:40;;;;;;;6.28;4.90;;;15.60;99.90;;;;;;4990978;28;20200;-80
2023/05/10 11:00:28;;;;;;;7.70;5.55;;;15.60;99.90;;;;;;4960172;28;20186;-80
2023/05/10 11:02:58;;;;;;;9.13;6.85;;;15.70;99.90;;;;;;4977999;28;20221;-82
2023/05/10 11:05:28;;;;;;;10.32;7.07;;;15.70;99.90;;;;;;4974810;28;20189;-83
2023/05/10 11:07:56;;;;;;;11.35;8.07;;;15.70;99.90;;;;;;4974627;28;20244;-82
2023/05/10 11:10:23;;;;;;;10.27;8.02;;;15.70;99.90;;;;;;4993599;28;20189;-81
2023/05/10 11:12:54;;;;;;;9.60;8.10;;;15.70;99.90;;;;;;4979967;28;20205;-82
2023/05/10 11:15:20;;;;;;;9.63;7.97;;;15.70;99.90;;;;;;4963607;28;20701;-83
2023/05/10 11:17:51;;;;;;;8.30;7.43;;;15.70;99.90;;;;;;4963115;28;20190;-81
2023/05/10 11:20:22;;;;;;;11.32;8.15;;;15.80;99.90;;;;;;4978570;28;20196;-83
2023/05/10 11:22:52;;;;;;;10.95;9.00;;;15.90;99.90;;;;;;4996793;28;20188;-81
2023/05/10 11:25:19;;;;;;;13.40;10.65;;;15.90;99.90;;;;;;4977682;28;20181;-83
2023/05/10 11:27:45;;;;;;;13.98;10.43;;;15.90;99.90;;;;;;4960160;28;20635;-83
2023/05/10 11:30:11;;;;;;;13.55;10.20;;;15.90;99.90;;;;;;4976753;28;20194;-82
2023/05/10 11:32:38;;;;;;;13.48;9.77;;;15.90;99.90;;;;;;4979088;28;20193;-82
2023/05/10 11:35:09;;;;;;;11.27;8.82;;;15.90;99.90;;;;;;4996059;28;20229;-83
2023/05/10 11:37:35;;;;;;;13.38;10.02;;;15.90;99.90;;;;;;4975563;28;20208;-81
2023/05/10 11:40:01;;;;;;;13.10;9.75;;;16.00;99.90;;;;;;4975763;28;20178;-86
2023/05/10 11:42:28;;;;;;;13.27;9.98;;;16.00;99.90;;;;;;4977652;28;20194;-80
2023/05/10 11:44:54;;;;;;;16.15;10.85;;;16.00;99.90;;;;;;4977532;28;20189;-81
2023/05/10 11:47:20;;;;;;;15.98;10.07;;;16.00;99.90;;;;;;4965362;28;20269;-82
2023/05/10 11:49:46;;;;;;;16.60;10.60;;;16.00;99.90;;;;;;4978294;28;20594;-81
2023/05/10 11:52:12;;;;;;;14.30;10.32;;;16.00;99.90;;;;;;4978212;28;20185;-82
2023/05/10 11:54:44;;;;;;;15.52;11.45;;;16.00;99.90;;;;;;4977611;28;20288;-83
2023/05/10 11:57:10;;;;;;;15.02;11.30;;;16.00;99.90;;;;;;4992569;28;20181;-82
2023/05/10 11:59:36;;;;;;;14.38;11.35;;;16.00;99.90;;;;;;4976661;28;20243;-83
2023/05/10 12:02:03;;;;;;;14.30;10.98;;;16.00;99.90;;;;;;4976543;28;20197;-83
2023/05/10 12:04:29;;;;;;;17.35;11.60;;;16.00;99.90;;;;;;4961348;28;20196;-82
2023/05/10 12:06:55;;;;;;;14.27;10.50;;;16.00;99.90;;;;;;4993296;28;20276;-83
2023/05/10 12:09:21;;;;;;;18.67;11.30;;;16.00;99.90;;;;;;4977774;28;20276;-82
2023/05/10 12:11:47;;;;;;;14.07;10.70;;;16.00;99.90;;;;;;4993708;28;20193;-83
2023/05/10 12:14:13;;;;;;;19.00;11.70;;;16.00;99.90;;;;;;4962012;28;20600;-82
2023/05/10 12:16:38;;;;;;;19.70;12.60;;;16.00;99.90;;;;;;4993664;28;20566;-82
2023/05/10 12:19:05;;;;;;;19.15;11.95;;;15.90;99.90;;;;;;4976239;28;20666;-82
2023/05/10 12:21:31;;;;;;;15.55;10.82;;;15.90;99.90;;;;;;4976900;28;20181;-83
2023/05/10 12:24:02;;;;;;;18.13;12.18;;;15.90;99.90;;;;;;4961508;28;20715;-82
2023/05/10 12:26:28;;;;;;;17.67;12.48;;;15.90;99.90;;;;;;4993835;28;20194;-83
2023/05/10 12:29:10;;;;;;;15.73;11.75;;;15.80;99.90;;;;;;4976417;28;20193;-82
2023/05/10 12:31:58;;;;;;;17.33;12.00;;;15.80;99.90;;;;;;4993594;28;20245;-82
2023/05/10 12:34:35;;;;;;;16.17;11.93;;;15.80;99.90;;;;;;4970380;28;20492;-82
2023/05/10 12:37:03;;;;;;;21.85;14.13;;;15.80;99.90;;;;;;4955138;29;20256;-81
2023/05/10 12:39:39;;;;;;;20.00;13.60;;;15.80;99.90;;;;;;4937046;29;20241;-82